sensor_id;sensor_type;location;lat;lon;timestamp;temperature;humidity
21275;DHT22;36472;52.170;20.884;2023-06-14T00:00:51;30.20;52.20
21275;DHT22;36472;52.170;20.884;2023-06-14T00:03:41;30.30;52.10
21275;DHT22;36472;52.170;20.884;2023-06-14T00:06:12;30.30;52.10
21275;DHT22;36472;52.170;20.884;2023-06-14T00:08:40;30.30;52.10
21275;DHT22;36472;52.170;20.884;2023-06-14T00:11:10;30.30;52.30
21275;DHT22;36472;52.170;20.884;2023-06-14T00:13:38;30.30;51.90
21275;DHT22;36472;52.170;20.884;2023-06-14T00:16:08;30.20;51.90
21275;DHT22;36472;52.170;20.884;2023-06-14T00:18:37;30.20;52.70
21275;DHT22;36472;52.170;20.884;2023-06-14T00:21:07;30.30;51.70
21275;DHT22;36472;52.170;20.884;2023-06-14T00:23:38;30.30;52.00
21275;DHT22;36472;52.170;20.884;2023-06-14T00:26:08;30.30;52.00
21275;DHT22;36472;52.170;20.884;2023-06-14T00:28:38;30.30;52.10
21275;DHT22;36472;52.170;20.884;2023-06-14T00:31:08;30.30;51.30
21275;DHT22;36472;52.170;20.884;2023-06-14T00:33:37;30.30;51.50
21275;DHT22;36472;52.170;20.884;2023-06-14T00:36:07;30.30;51.50
21275;DHT22;36472;52.170;20.884;2023-06-14T00:38:36;30.30;51.60
21275;DHT22;36472;52.170;20.884;2023-06-14T00:41:09;30.30;51.60
21275;DHT22;36472;52.170;20.884;2023-06-14T00:43:37;30.20;51.70
21275;DHT22;36472;52.170;20.884;2023-06-14T00:46:07;30.20;51.60
21275;DHT22;36472;52.170;20.884;2023-06-14T00:48:37;30.20;51.60
21275;DHT22;36472;52.170;20.884;2023-06-14T00:51:08;30.20;51.70
21275;DHT22;36472;52.170;20.884;2023-06-14T00:53:39;30.10;51.90
21275;DHT22;36472;52.170;20.884;2023-06-14T00:56:13;30.10;51.70
21275;DHT22;36472;52.170;20.884;2023-06-14T00:58:43;30.10;51.70
21275;DHT22;36472;52.170;20.884;2023-06-14T01:01:12;30.10;51.90
21275;DHT22;36472;52.170;20.884;2023-06-14T01:03:41;30.10;51.80
21275;DHT22;36472;52.170;20.884;2023-06-14T01:06:18;30.10;51.90
21275;DHT22;36472;52.170;20.884;2023-06-14T01:09:07;30.10;51.50
21275;DHT22;36472;52.170;20.884;2023-06-14T01:11:50;30.10;51.70
21275;DHT22;36472;52.170;20.884;2023-06-14T01:14:27;30.10;52.10
21275;DHT22;36472;52.170;20.884;2023-06-14T01:16:59;30.10;51.10
21275;DHT22;36472;52.170;20.884;2023-06-14T01:19:28;30.10;51.80
21275;DHT22;36472;52.170;20.884;2023-06-14T01:22:01;30.10;51.70
21275;DHT22;36472;52.170;20.884;2023-06-14T01:24:32;30.10;51.30
21275;DHT22;36472;52.170;20.884;2023-06-14T01:27:03;30.10;51.10
21275;DHT22;36472;52.170;20.884;2023-06-14T01:29:33;30.10;51.30
21275;DHT22;36472;52.170;20.884;2023-06-14T01:32:04;30.10;51.60
21275;DHT22;36472;52.170;20.884;2023-06-14T01:34:35;30.10;51.60
21275;DHT22;36472;52.170;20.884;2023-06-14T01:37:04;30.10;51.10
21275;DHT22;36472;52.170;20.884;2023-06-14T01:39:35;30.10;51.10
21275;DHT22;36472;52.170;20.884;2023-06-14T01:42:06;30.10;51.50
21275;DHT22;36472;52.170;20.884;2023-06-14T01:44:36;30.10;51.70
21275;DHT22;36472;52.170;20.884;2023-06-14T01:47:06;30.10;51.80
21275;DHT22;36472;52.170;20.884;2023-06-14T01:49:36;30.20;51.80
21275;DHT22;36472;52.170;20.884;2023-06-14T01:52:08;30.20;51.10
21275;DHT22;36472;52.170;20.884;2023-06-14T01:54:39;30.20;51.60
21275;DHT22;36472;52.170;20.884;2023-06-14T01:57:09;30.10;51.40
21275;DHT22;36472;52.170;20.884;2023-06-14T01:59:38;30.10;51.30
21275;DHT22;36472;52.170;20.884;2023-06-14T02:02:09;30.10;51.20
21275;DHT22;36472;52.170;20.884;2023-06-14T02:04:37;30.10;51.80
21275;DHT22;36472;52.170;20.884;2023-06-14T02:07:07;30.10;51.80
21275;DHT22;36472;52.170;20.884;2023-06-14T02:09:36;30.10;51.70
21275;DHT22;36472;52.170;20.884;2023-06-14T02:12:08;30.10;51.60
21275;DHT22;36472;52.170;20.884;2023-06-14T02:14:38;30.20;52.10
21275;DHT22;36472;52.170;20.884;2023-06-14T02:17:07;30.20;51.90
21275;DHT22;36472;52.170;20.884;2023-06-14T02:19:36;30.20;51.80
21275;DHT22;36472;52.170;20.884;2023-06-14T02:22:05;30.20;51.40
21275;DHT22;36472;52.170;20.884;2023-06-14T02:24:34;30.20;51.40
21275;DHT22;36472;52.170;20.884;2023-06-14T02:27:09;30.20;51.50
21275;DHT22;36472;52.170;20.884;2023-06-14T02:29:38;30.20;51.60
21275;DHT22;36472;52.170;20.884;2023-06-14T02:32:08;30.20;51.50
21275;DHT22;36472;52.170;20.884;2023-06-14T02:34:38;30.20;51.40
21275;DHT22;36472;52.170;20.884;2023-06-14T02:37:09;30.20;51.30
21275;DHT22;36472;52.170;20.884;2023-06-14T02:39:38;30.20;51.50
21275;DHT22;36472;52.170;20.884;2023-06-14T02:42:09;30.20;51.70
21275;DHT22;36472;52.170;20.884;2023-06-14T02:44:38;30.10;51.40
21275;DHT22;36472;52.170;20.884;2023-06-14T02:47:08;30.10;51.50
21275;DHT22;36472;52.170;20.884;2023-06-14T02:49:37;30.10;51.80
21275;DHT22;36472;52.170;20.884;2023-06-14T02:52:06;30.10;51.50
21275;DHT22;36472;52.170;20.884;2023-06-14T02:54:36;30.10;51.90
21275;DHT22;36472;52.170;20.884;2023-06-14T02:57:06;30.10;51.80
21275;DHT22;36472;52.170;20.884;2023-06-14T02:59:37;30.20;52.30
21275;DHT22;36472;52.170;20.884;2023-06-14T03:02:06;30.20;52.10
21275;DHT22;36472;52.170;20.884;2023-06-14T03:04:36;30.20;52.00
21275;DHT22;36472;52.170;20.884;2023-06-14T03:07:14;30.20;51.90
21275;DHT22;36472;52.170;20.884;2023-06-14T03:09:50;30.20;51.60
21275;DHT22;36472;52.170;20.884;2023-06-14T03:12:20;30.30;51.60
21275;DHT22;36472;52.170;20.884;2023-06-14T03:14:52;30.20;52.00
21275;DHT22;36472;52.170;20.884;2023-06-14T03:17:25;30.30;51.90
21275;DHT22;36472;52.170;20.884;2023-06-14T03:19:58;30.30;51.90
21275;DHT22;36472;52.170;20.884;2023-06-14T03:22:27;30.30;51.80
21275;DHT22;36472;52.170;20.884;2023-06-14T03:24:57;30.30;51.70
21275;DHT22;36472;52.170;20.884;2023-06-14T03:27:29;30.30;51.70
21275;DHT22;36472;52.170;20.884;2023-06-14T03:30:00;30.30;51.70
21275;DHT22;36472;52.170;20.884;2023-06-14T03:32:30;30.30;51.80
21275;DHT22;36472;52.170;20.884;2023-06-14T03:35:02;30.30;51.60
21275;DHT22;36472;52.170;20.884;2023-06-14T03:37:31;30.20;51.80
21275;DHT22;36472;52.170;20.884;2023-06-14T03:40:00;30.30;51.70
21275;DHT22;36472;52.170;20.884;2023-06-14T03:42:40;30.30;52.30
21275;DHT22;36472;52.170;20.884;2023-06-14T03:45:11;30.30;52.40
21275;DHT22;36472;52.170;20.884;2023-06-14T03:47:41;30.30;51.90
21275;DHT22;36472;52.170;20.884;2023-06-14T03:50:10;30.30;51.90
21275;DHT22;36472;52.170;20.884;2023-06-14T03:52:40;30.30;51.50
21275;DHT22;36472;52.170;20.884;2023-06-14T03:55:12;30.30;51.50
21275;DHT22;36472;52.170;20.884;2023-06-14T03:57:45;30.30;51.80
21275;DHT22;36472;52.170;20.884;2023-06-14T04:00:18;30.40;51.60
21275;DHT22;36472;52.170;20.884;2023-06-14T04:02:48;30.40;51.60
21275;DHT22;36472;52.170;20.884;2023-06-14T04:05:18;30.40;51.30
21275;DHT22;36472;52.170;20.884;2023-06-14T04:07:50;30.30;51.20
21275;DHT22;36472;52.170;20.884;2023-06-14T04:10:19;30.30;51.10
21275;DHT22;36472;52.170;20.884;2023-06-14T04:12:48;30.30;51.60
21275;DHT22;36472;52.170;20.884;2023-06-14T04:15:19;30.40;51.40
21275;DHT22;36472;52.170;20.884;2023-06-14T04:17:52;30.40;51.30
21275;DHT22;36472;52.170;20.884;2023-06-14T04:20:25;30.40;51.60
21275;DHT22;36472;52.170;20.884;2023-06-14T04:22:56;30.40;51.80
21275;DHT22;36472;52.170;20.884;2023-06-14T04:25:25;30.40;51.80
21275;DHT22;36472;52.170;20.884;2023-06-14T04:27:56;30.40;52.00
21275;DHT22;36472;52.170;20.884;2023-06-14T04:30:27;30.50;52.10
21275;DHT22;36472;52.170;20.884;2023-06-14T04:32:59;30.50;51.90
21275;DHT22;36472;52.170;20.884;2023-06-14T04:35:28;30.50;51.30
21275;DHT22;36472;52.170;20.884;2023-06-14T04:38:00;30.60;51.20
21275;DHT22;36472;52.170;20.884;2023-06-14T04:40:29;30.60;51.20
21275;DHT22;36472;52.170;20.884;2023-06-14T04:42:59;30.60;51.40
21275;DHT22;36472;52.170;20.884;2023-06-14T04:45:29;30.60;51.30
21275;DHT22;36472;52.170;20.884;2023-06-14T04:47:59;30.60;50.90
21275;DHT22;36472;52.170;20.884;2023-06-14T04:50:28;30.60;51.50
21275;DHT22;36472;52.170;20.884;2023-06-14T04:53:00;30.60;51.80
21275;DHT22;36472;52.170;20.884;2023-06-14T04:55:30;30.60;51.20
21275;DHT22;36472;52.170;20.884;2023-06-14T04:58:01;30.60;51.60
21275;DHT22;36472;52.170;20.884;2023-06-14T05:00:32;30.70;51.20
21275;DHT22;36472;52.170;20.884;2023-06-14T05:03:01;30.70;51.30
21275;DHT22;36472;52.170;20.884;2023-06-14T05:05:30;30.70;51.10
21275;DHT22;36472;52.170;20.884;2023-06-14T05:08:00;30.70;50.90
21275;DHT22;36472;52.170;20.884;2023-06-14T05:10:29;30.80;50.60
21275;DHT22;36472;52.170;20.884;2023-06-14T05:12:59;30.80;51.10
21275;DHT22;36472;52.170;20.884;2023-06-14T05:15:29;30.80;51.50
21275;DHT22;36472;52.170;20.884;2023-06-14T05:18:00;30.80;50.80
21275;DHT22;36472;52.170;20.884;2023-06-14T05:20:30;30.80;51.20
21275;DHT22;36472;52.170;20.884;2023-06-14T05:22:59;30.80;51.50
21275;DHT22;36472;52.170;20.884;2023-06-14T05:25:28;30.90;51.60
21275;DHT22;36472;52.170;20.884;2023-06-14T05:27:57;30.90;51.30
21275;DHT22;36472;52.170;20.884;2023-06-14T05:30:26;30.90;50.80
21275;DHT22;36472;52.170;20.884;2023-06-14T05:32:59;30.90;50.90
21275;DHT22;36472;52.170;20.884;2023-06-14T05:35:28;30.90;50.90
21275;DHT22;36472;52.170;20.884;2023-06-14T05:37:58;31.00;51.20
21275;DHT22;36472;52.170;20.884;2023-06-14T05:40:27;31.00;51.20
21275;DHT22;36472;52.170;20.884;2023-06-14T05:42:56;31.10;53.00
21275;DHT22;36472;52.170;20.884;2023-06-14T05:45:25;31.10;52.20
21275;DHT22;36472;52.170;20.884;2023-06-14T05:47:54;31.10;51.60
21275;DHT22;36472;52.170;20.884;2023-06-14T05:50:25;31.10;50.60
21275;DHT22;36472;52.170;20.884;2023-06-14T05:52:54;31.20;51.60
21275;DHT22;36472;52.170;20.884;2023-06-14T05:55:23;31.20;51.70
21275;DHT22;36472;52.170;20.884;2023-06-14T05:57:52;31.20;50.70
21275;DHT22;36472;52.170;20.884;2023-06-14T06:00:21;31.20;51.10
21275;DHT22;36472;52.170;20.884;2023-06-14T06:02:51;31.20;50.50
21275;DHT22;36472;52.170;20.884;2023-06-14T06:05:20;31.20;50.60
21275;DHT22;36472;52.170;20.884;2023-06-14T06:07:51;31.20;50.60
21275;DHT22;36472;52.170;20.884;2023-06-14T06:10:20;31.20;50.90
21275;DHT22;36472;52.170;20.884;2023-06-14T06:12:49;31.20;50.60
21275;DHT22;36472;52.170;20.884;2023-06-14T06:15:19;31.20;50.30
21275;DHT22;36472;52.170;20.884;2023-06-14T06:17:48;31.20;50.70
21275;DHT22;36472;52.170;20.884;2023-06-14T06:20:23;31.30;50.20
21275;DHT22;36472;52.170;20.884;2023-06-14T06:26:52;31.40;51.30
21275;DHT22;36472;52.170;20.884;2023-06-14T06:29:22;31.40;50.90
21275;DHT22;36472;52.170;20.884;2023-06-14T06:31:51;31.60;51.00
21275;DHT22;36472;52.170;20.884;2023-06-14T06:34:21;31.70;51.20
21275;DHT22;36472;52.170;20.884;2023-06-14T06:36:49;31.90;49.80
21275;DHT22;36472;52.170;20.884;2023-06-14T06:39:19;32.00;50.00
21275;DHT22;36472;52.170;20.884;2023-06-14T06:41:48;32.10;49.70
21275;DHT22;36472;52.170;20.884;2023-06-14T06:44:28;32.20;49.80
21275;DHT22;36472;52.170;20.884;2023-06-14T06:46:57;32.30;49.10
21275;DHT22;36472;52.170;20.884;2023-06-14T06:49:27;32.40;49.20
21275;DHT22;36472;52.170;20.884;2023-06-14T06:51:59;32.40;50.40
21275;DHT22;36472;52.170;20.884;2023-06-14T06:54:30;32.50;50.50
21275;DHT22;36472;52.170;20.884;2023-06-14T06:57:00;32.60;47.50
21275;DHT22;36472;52.170;20.884;2023-06-14T06:59:31;32.60;47.80
21275;DHT22;36472;52.170;20.884;2023-06-14T07:02:00;32.60;49.30
21275;DHT22;36472;52.170;20.884;2023-06-14T07:04:29;32.60;48.80
21275;DHT22;36472;52.170;20.884;2023-06-14T07:06:58;32.70;47.40
21275;DHT22;36472;52.170;20.884;2023-06-14T07:09:28;32.70;47.80
21275;DHT22;36472;52.170;20.884;2023-06-14T07:11:57;32.70;46.70
21275;DHT22;36472;52.170;20.884;2023-06-14T07:14:26;32.60;46.30
21275;DHT22;36472;52.170;20.884;2023-06-14T07:16:57;32.60;48.00
21275;DHT22;36472;52.170;20.884;2023-06-14T07:19:27;32.60;47.90
21275;DHT22;36472;52.170;20.884;2023-06-14T07:21:56;32.60;47.90
21275;DHT22;36472;52.170;20.884;2023-06-14T07:24:25;32.60;47.90
21275;DHT22;36472;52.170;20.884;2023-06-14T07:26:56;32.60;49.20
21275;DHT22;36472;52.170;20.884;2023-06-14T07:29:25;32.60;48.60
21275;DHT22;36472;52.170;20.884;2023-06-14T07:31:54;32.60;48.30
21275;DHT22;36472;52.170;20.884;2023-06-14T07:34:25;32.70;47.70
21275;DHT22;36472;52.170;20.884;2023-06-14T07:36:54;32.80;47.70
21275;DHT22;36472;52.170;20.884;2023-06-14T07:39:23;32.80;47.80
21275;DHT22;36472;52.170;20.884;2023-06-14T07:41:52;32.80;47.40
21275;DHT22;36472;52.170;20.884;2023-06-14T07:44:22;32.80;47.20
21275;DHT22;36472;52.170;20.884;2023-06-14T07:46:50;32.80;47.30
21275;DHT22;36472;52.170;20.884;2023-06-14T07:49:20;32.80;46.40
21275;DHT22;36472;52.170;20.884;2023-06-14T07:51:50;32.90;45.60
21275;DHT22;36472;52.170;20.884;2023-06-14T07:54:21;33.00;47.40
21275;DHT22;36472;52.170;20.884;2023-06-14T07:56:53;33.00;46.50
21275;DHT22;36472;52.170;20.884;2023-06-14T07:59:22;33.00;47.10
21275;DHT22;36472;52.170;20.884;2023-06-14T08:01:50;32.90;46.80
21275;DHT22;36472;52.170;20.884;2023-06-14T08:04:20;32.90;45.50
21275;DHT22;36472;52.170;20.884;2023-06-14T08:06:50;32.90;45.60
21275;DHT22;36472;52.170;20.884;2023-06-14T08:09:20;32.90;45.80
21275;DHT22;36472;52.170;20.884;2023-06-14T08:11:49;32.90;45.50
21275;DHT22;36472;52.170;20.884;2023-06-14T08:14:18;33.00;45.00
21275;DHT22;36472;52.170;20.884;2023-06-14T08:16:47;33.00;45.90
21275;DHT22;36472;52.170;20.884;2023-06-14T08:19:17;33.00;45.70
21275;DHT22;36472;52.170;20.884;2023-06-14T08:21:47;33.00;45.50
21275;DHT22;36472;52.170;20.884;2023-06-14T08:24:18;33.10;45.80
21275;DHT22;36472;52.170;20.884;2023-06-14T08:26:52;33.10;45.70
21275;DHT22;36472;52.170;20.884;2023-06-14T08:29:21;33.10;46.50
21275;DHT22;36472;52.170;20.884;2023-06-14T08:31:50;33.10;46.40
21275;DHT22;36472;52.170;20.884;2023-06-14T08:34:19;33.20;46.40
21275;DHT22;36472;52.170;20.884;2023-06-14T08:36:51;33.20;47.30
21275;DHT22;36472;52.170;20.884;2023-06-14T08:39:21;33.30;46.10
21275;DHT22;36472;52.170;20.884;2023-06-14T08:41:52;33.30;45.30
21275;DHT22;36472;52.170;20.884;2023-06-14T08:44:23;33.30;45.50
21275;DHT22;36472;52.170;20.884;2023-06-14T08:46:55;33.40;45.90
21275;DHT22;36472;52.170;20.884;2023-06-14T08:49:26;33.40;45.80
21275;DHT22;36472;52.170;20.884;2023-06-14T08:51:57;33.40;45.10
21275;DHT22;36472;52.170;20.884;2023-06-14T08:54:30;33.50;44.70
21275;DHT22;36472;52.170;20.884;2023-06-14T08:57:03;33.50;44.80
21275;DHT22;36472;52.170;20.884;2023-06-14T08:59:34;33.60;45.30
21275;DHT22;36472;52.170;20.884;2023-06-14T09:02:06;33.60;45.50
21275;DHT22;36472;52.170;20.884;2023-06-14T09:04:40;33.70;44.60
21275;DHT22;36472;52.170;20.884;2023-06-14T09:07:09;33.80;44.60
21275;DHT22;36472;52.170;20.884;2023-06-14T09:09:40;33.70;44.10
21275;DHT22;36472;52.170;20.884;2023-06-14T09:12:29;33.90;45.00
21275;DHT22;36472;52.170;20.884;2023-06-14T09:14:59;34.00;43.40
21275;DHT22;36472;52.170;20.884;2023-06-14T09:17:33;34.00;43.50
21275;DHT22;36472;52.170;20.884;2023-06-14T09:20:04;34.20;43.30
21275;DHT22;36472;52.170;20.884;2023-06-14T09:22:37;34.20;42.80
21275;DHT22;36472;52.170;20.884;2023-06-14T09:25:08;34.30;42.90
21275;DHT22;36472;52.170;20.884;2023-06-14T09:27:48;34.40;43.60
21275;DHT22;36472;52.170;20.884;2023-06-14T09:30:20;34.40;42.40
21275;DHT22;36472;52.170;20.884;2023-06-14T09:32:50;34.40;43.50
21275;DHT22;36472;52.170;20.884;2023-06-14T09:35:20;34.50;44.20
21275;DHT22;36472;52.170;20.884;2023-06-14T09:37:49;34.50;43.30
21275;DHT22;36472;52.170;20.884;2023-06-14T09:40:21;34.60;42.80
21275;DHT22;36472;52.170;20.884;2023-06-14T09:42:51;34.60;42.50
21275;DHT22;36472;52.170;20.884;2023-06-14T09:45:21;34.70;42.60
21275;DHT22;36472;52.170;20.884;2023-06-14T09:47:51;34.70;42.70
21275;DHT22;36472;52.170;20.884;2023-06-14T09:50:33;34.60;42.50
21275;DHT22;36472;52.170;20.884;2023-06-14T09:53:05;34.60;42.70
21275;DHT22;36472;52.170;20.884;2023-06-14T09:55:38;34.60;42.90
21275;DHT22;36472;52.170;20.884;2023-06-14T09:58:10;34.50;42.90
21275;DHT22;36472;52.170;20.884;2023-06-14T10:00:41;34.50;43.10
21275;DHT22;36472;52.170;20.884;2023-06-14T10:03:13;34.50;43.70
21275;DHT22;36472;52.170;20.884;2023-06-14T10:05:47;34.50;43.90
21275;DHT22;36472;52.170;20.884;2023-06-14T10:08:20;34.50;43.90
21275;DHT22;36472;52.170;20.884;2023-06-14T10:10:55;34.50;44.00
21275;DHT22;36472;52.170;20.884;2023-06-14T10:13:25;34.60;43.90
21275;DHT22;36472;52.170;20.884;2023-06-14T10:16:03;34.60;43.90
21275;DHT22;36472;52.170;20.884;2023-06-14T10:18:43;34.70;44.10
21275;DHT22;36472;52.170;20.884;2023-06-14T10:21:25;34.60;44.30
21275;DHT22;36472;52.170;20.884;2023-06-14T10:24:04;34.70;44.40
21275;DHT22;36472;52.170;20.884;2023-06-14T10:26:50;34.70;43.40
21275;DHT22;36472;52.170;20.884;2023-06-14T10:29:20;34.80;43.70
21275;DHT22;36472;52.170;20.884;2023-06-14T10:31:50;34.80;43.90
21275;DHT22;36472;52.170;20.884;2023-06-14T10:34:27;34.90;41.70
21275;DHT22;36472;52.170;20.884;2023-06-14T10:37:02;35.00;42.20
21275;DHT22;36472;52.170;20.884;2023-06-14T10:39:37;35.10;43.10
21275;DHT22;36472;52.170;20.884;2023-06-14T10:42:09;35.10;41.30
21275;DHT22;36472;52.170;20.884;2023-06-14T10:44:40;35.10;42.30
21275;DHT22;36472;52.170;20.884;2023-06-14T10:47:20;35.10;42.20
21275;DHT22;36472;52.170;20.884;2023-06-14T10:49:54;35.20;41.20
21275;DHT22;36472;52.170;20.884;2023-06-14T10:52:26;35.10;40.40
21275;DHT22;36472;52.170;20.884;2023-06-14T10:55:17;35.10;40.80
21275;DHT22;36472;52.170;20.884;2023-06-14T10:57:52;35.10;40.40
21275;DHT22;36472;52.170;20.884;2023-06-14T11:00:25;35.20;40.50
21275;DHT22;36472;52.170;20.884;2023-06-14T11:03:36;35.20;39.60
21275;DHT22;36472;52.170;20.884;2023-06-14T11:06:22;35.20;40.00
21275;DHT22;36472;52.170;20.884;2023-06-14T11:12:18;35.20;40.40
21275;DHT22;36472;52.170;20.884;2023-06-14T11:14:48;35.30;39.50
21275;DHT22;36472;52.170;20.884;2023-06-14T11:17:18;35.30;40.20
21275;DHT22;36472;52.170;20.884;2023-06-14T11:19:48;35.40;40.00
21275;DHT22;36472;52.170;20.884;2023-06-14T11:22:17;35.50;39.60
21275;DHT22;36472;52.170;20.884;2023-06-14T11:24:46;35.60;40.40
21275;DHT22;36472;52.170;20.884;2023-06-14T11:27:15;35.60;39.40
21275;DHT22;36472;52.170;20.884;2023-06-14T11:29:49;35.70;40.00
21275;DHT22;36472;52.170;20.884;2023-06-14T11:32:18;35.70;40.50
21275;DHT22;36472;52.170;20.884;2023-06-14T11:34:48;35.70;38.70
21275;DHT22;36472;52.170;20.884;2023-06-14T11:37:19;35.70;39.80
21275;DHT22;36472;52.170;20.884;2023-06-14T11:39:48;35.60;39.30
21275;DHT22;36472;52.170;20.884;2023-06-14T11:42:17;35.60;38.60
21275;DHT22;36472;52.170;20.884;2023-06-14T11:44:46;35.60;39.70
21275;DHT22;36472;52.170;20.884;2023-06-14T11:47:17;35.50;38.70
21275;DHT22;36472;52.170;20.884;2023-06-14T11:49:46;35.50;37.70
21275;DHT22;36472;52.170;20.884;2023-06-14T11:52:16;35.50;37.20
21275;DHT22;36472;52.170;20.884;2023-06-14T11:54:48;35.50;39.40
21275;DHT22;36472;52.170;20.884;2023-06-14T11:57:18;35.50;39.50
21275;DHT22;36472;52.170;20.884;2023-06-14T11:59:48;35.50;39.50
21275;DHT22;36472;52.170;20.884;2023-06-14T12:02:21;35.50;39.50
21275;DHT22;36472;52.170;20.884;2023-06-14T12:04:53;35.50;39.00
21275;DHT22;36472;52.170;20.884;2023-06-14T12:07:22;35.50;39.40
21275;DHT22;36472;52.170;20.884;2023-06-14T12:10:08;35.40;39.10
21275;DHT22;36472;52.170;20.884;2023-06-14T12:12:39;35.30;38.20
21275;DHT22;36472;52.170;20.884;2023-06-14T12:15:09;35.30;39.10
21275;DHT22;36472;52.170;20.884;2023-06-14T12:17:42;35.30;38.80
21275;DHT22;36472;52.170;20.884;2023-06-14T12:20:13;35.30;38.70
21275;DHT22;36472;52.170;20.884;2023-06-14T12:23:02;35.30;38.80
21275;DHT22;36472;52.170;20.884;2023-06-14T12:25:33;35.30;36.90
21275;DHT22;36472;52.170;20.884;2023-06-14T12:28:05;35.20;37.50
21275;DHT22;36472;52.170;20.884;2023-06-14T12:30:36;35.20;38.20
21275;DHT22;36472;52.170;20.884;2023-06-14T12:33:08;35.10;38.50
21275;DHT22;36472;52.170;20.884;2023-06-14T12:35:37;35.10;38.20
21275;DHT22;36472;52.170;20.884;2023-06-14T12:38:06;35.00;38.80
21275;DHT22;36472;52.170;20.884;2023-06-14T12:40:35;34.90;39.80
21275;DHT22;36472;52.170;20.884;2023-06-14T12:43:05;34.90;39.10
21275;DHT22;36472;52.170;20.884;2023-06-14T12:45:34;34.80;38.50
21275;DHT22;36472;52.170;20.884;2023-06-14T12:48:03;34.80;39.10
21275;DHT22;36472;52.170;20.884;2023-06-14T12:50:34;34.90;38.90
21275;DHT22;36472;52.170;20.884;2023-06-14T12:53:03;34.90;37.70
21275;DHT22;36472;52.170;20.884;2023-06-14T12:55:33;34.90;37.20
21275;DHT22;36472;52.170;20.884;2023-06-14T12:58:02;34.90;38.00
21275;DHT22;36472;52.170;20.884;2023-06-14T13:00:32;34.90;38.10
21275;DHT22;36472;52.170;20.884;2023-06-14T13:03:00;34.90;37.90
21275;DHT22;36472;52.170;20.884;2023-06-14T13:05:30;35.00;38.40
21275;DHT22;36472;52.170;20.884;2023-06-14T13:08:02;34.90;38.80
21275;DHT22;36472;52.170;20.884;2023-06-14T13:10:32;35.00;38.40
21275;DHT22;36472;52.170;20.884;2023-06-14T13:13:01;35.00;38.60
21275;DHT22;36472;52.170;20.884;2023-06-14T13:15:30;35.00;39.60
21275;DHT22;36472;52.170;20.884;2023-06-14T13:17:59;35.00;39.30
21275;DHT22;36472;52.170;20.884;2023-06-14T13:20:29;35.10;39.40
21275;DHT22;36472;52.170;20.884;2023-06-14T13:22:59;35.10;39.50
21275;DHT22;36472;52.170;20.884;2023-06-14T13:25:31;35.20;38.40
21275;DHT22;36472;52.170;20.884;2023-06-14T13:28:00;35.20;38.60
21275;DHT22;36472;52.170;20.884;2023-06-14T13:30:30;35.10;37.60
21275;DHT22;36472;52.170;20.884;2023-06-14T13:32:59;35.10;37.90
21275;DHT22;36472;52.170;20.884;2023-06-14T13:35:29;35.10;37.80
21275;DHT22;36472;52.170;20.884;2023-06-14T13:37:58;35.10;37.30
21275;DHT22;36472;52.170;20.884;2023-06-14T13:40:27;35.10;37.30
21275;DHT22;36472;52.170;20.884;2023-06-14T13:42:57;35.10;37.30
21275;DHT22;36472;52.170;20.884;2023-06-14T13:45:26;35.10;37.00
21275;DHT22;36472;52.170;20.884;2023-06-14T13:47:55;35.00;37.10
21275;DHT22;36472;52.170;20.884;2023-06-14T13:50:24;34.90;36.70
21275;DHT22;36472;52.170;20.884;2023-06-14T13:52:53;34.90;37.20
21275;DHT22;36472;52.170;20.884;2023-06-14T13:55:23;34.80;37.10
21275;DHT22;36472;52.170;20.884;2023-06-14T13:57:52;34.80;37.60
21275;DHT22;36472;52.170;20.884;2023-06-14T14:00:23;34.70;37.90
21275;DHT22;36472;52.170;20.884;2023-06-14T14:02:52;34.70;38.30
21275;DHT22;36472;52.170;20.884;2023-06-14T14:05:22;34.60;38.60
21275;DHT22;36472;52.170;20.884;2023-06-14T14:07:56;34.60;38.60
21275;DHT22;36472;52.170;20.884;2023-06-14T14:10:25;34.60;39.00
21275;DHT22;36472;52.170;20.884;2023-06-14T14:12:54;34.60;38.80
21275;DHT22;36472;52.170;20.884;2023-06-14T14:15:25;34.60;39.40
21275;DHT22;36472;52.170;20.884;2023-06-14T14:17:55;34.60;39.70
21275;DHT22;36472;52.170;20.884;2023-06-14T14:20:26;34.60;40.00
21275;DHT22;36472;52.170;20.884;2023-06-14T14:22:56;34.60;39.80
21275;DHT22;36472;52.170;20.884;2023-06-14T14:25:25;34.60;39.40
21275;DHT22;36472;52.170;20.884;2023-06-14T14:27:55;34.60;40.10
21275;DHT22;36472;52.170;20.884;2023-06-14T14:30:26;34.60;39.60
21275;DHT22;36472;52.170;20.884;2023-06-14T14:32:55;34.70;39.60
21275;DHT22;36472;52.170;20.884;2023-06-14T14:35:24;34.70;39.50
21275;DHT22;36472;52.170;20.884;2023-06-14T14:37:58;34.70;39.50
21275;DHT22;36472;52.170;20.884;2023-06-14T14:43:14;34.70;38.70
21275;DHT22;36472;52.170;20.884;2023-06-14T14:45:45;34.70;39.50
21275;DHT22;36472;52.170;20.884;2023-06-14T14:48:14;34.70;38.60
21275;DHT22;36472;52.170;20.884;2023-06-14T14:50:43;34.70;39.10
21275;DHT22;36472;52.170;20.884;2023-06-14T14:53:12;34.70;39.20
21275;DHT22;36472;52.170;20.884;2023-06-14T14:55:44;34.70;38.90
21275;DHT22;36472;52.170;20.884;2023-06-14T14:58:14;34.70;39.20
21275;DHT22;36472;52.170;20.884;2023-06-14T15:00:47;34.70;39.20
21275;DHT22;36472;52.170;20.884;2023-06-14T15:03:16;34.70;39.30
21275;DHT22;36472;52.170;20.884;2023-06-14T15:05:47;34.70;39.10
21275;DHT22;36472;52.170;20.884;2023-06-14T15:08:16;34.60;39.20
21275;DHT22;36472;52.170;20.884;2023-06-14T15:10:45;34.60;39.40
21275;DHT22;36472;52.170;20.884;2023-06-14T15:13:15;34.70;39.80
21275;DHT22;36472;52.170;20.884;2023-06-14T15:15:47;34.60;39.70
21275;DHT22;36472;52.170;20.884;2023-06-14T15:18:16;34.60;39.90
21275;DHT22;36472;52.170;20.884;2023-06-14T15:20:48;34.50;39.70
21275;DHT22;36472;52.170;20.884;2023-06-14T15:23:17;34.50;40.40
21275;DHT22;36472;52.170;20.884;2023-06-14T15:25:47;34.50;39.80
21275;DHT22;36472;52.170;20.884;2023-06-14T15:28:16;34.50;39.50
21275;DHT22;36472;52.170;20.884;2023-06-14T15:30:48;34.50;39.50
21275;DHT22;36472;52.170;20.884;2023-06-14T15:33:17;34.50;40.30
21275;DHT22;36472;52.170;20.884;2023-06-14T15:35:48;34.60;40.50
21275;DHT22;36472;52.170;20.884;2023-06-14T15:38:17;34.50;40.30
21275;DHT22;36472;52.170;20.884;2023-06-14T15:40:47;34.50;40.80
21275;DHT22;36472;52.170;20.884;2023-06-14T15:43:30;34.60;40.90
21275;DHT22;36472;52.170;20.884;2023-06-14T15:46:01;34.70;40.70
21275;DHT22;36472;52.170;20.884;2023-06-14T15:48:30;34.60;40.80